APL Egypt — A8BZ6 — position and weather

sailwx.info

Track history (hours):
 
Tides and Currents Weather Stations Pressure Air Temp Water Temp Dewpoint Dewpoint Depression Visibility Wind Speed Wind Dir Waves Ship Positions

APL Egypt

Last reported at 2016-May-20 03:28 UTC. Time now 2019-Apr-25 01:51 UTC.
Position N 01°54' E 102°22'.
Warning: this ship's position is years out of date!

Length 294 m; beam 32.2 m; draft 13.6 m.

Type: Ship. MMSI: 636090618.

Date/timePositionNaut miles runAvg speedWind from/ knotsBaromVisibWave heightAir tempDewpointWater temp
2016-May-20 03:28N 01°54' E 102°22'1516.2
2016-May-20 02:33N 01°47' E 102°35'6215.3
2016-May-19 22:31N 01°13' E 103°27'1616.4
2016-May-19 21:33N 01°09' E 103°42'1413.9
2016-May-19 20:33N 01°14' E 103°55'  
2016-May-16 03:16N 22°01' E 114°21'1514.6
2016-May-16 02:14N 22°12' E 114°10'812.3
2016-May-16 01:34N 22°19' E 114°05'1211.6
2016-May-16 00:34N 22°23' E 113°53'5 5.3
2016-May-15 23:34N 22°29' E 113°52'0 0.0
2016-May-15 13:11N 22°28' E 113°52'3 4.3
2016-May-15 12:33N 22°26' E 113°53'10 7.5
2016-May-15 11:14N 22°21' E 114°03'19 9.6
2016-May-15 09:15N 22°06' E 114°15'23 1.2
2016-May-14 13:22N 22°05' E 113°51'1011.9
2016-May-14 12:33N 22°15' E 113°49'1211.8
2016-May-14 11:33N 22°26' E 113°45'1 0.1
2016-May-14 02:18N 22°27' E 113°45'1013.6
2016-May-14 01:33N 22°17' E 113°48'267 9.2
2016-May-12 20:30N 24°02' E 118°16'1312.4
2016-May-12 19:26N 24°15' E 118°15'1112.2
2016-May-12 18:33N 24°23' E 118°07'6 6.0
2016-May-12 17:33N 24°26' E 118°02'0 0.0
2016-May-12 16:31N 24°26' E 118°02'0 0.0
2016-May-12 15:31N 24°26' E 118°02'0 0.0
2016-May-12 14:31N 24°26' E 118°02'0 0.0
2016-May-12 13:31N 24°26' E 118°02'0 0.0
2016-May-12 12:33N 24°27' E 118°02'0 0.0
2016-May-12 11:31N 24°26' E 118°02'5 5.6
2016-May-12 10:33N 24°24' E 118°07'7 7.1
2016-May-12 09:33N 24°19' E 118°12'9 4.5
2016-May-12 07:27N 24°17' E 118°22'0 0.5
2016-May-12 06:33N 24°17' E 118°22'1 1.2
2016-May-12 05:33N 24°16' E 118°23'1 1.2
2016-May-12 04:31N 24°16' E 118°24'34 8.0
2016-May-12 00:19N 24°32' E 118°57'911.4
2016-May-11 23:33N 24°36' E 119°05'1211.6
2016-May-11 22:31N 24°43' E 119°16'1411.5
2016-May-11 21:17N 24°52' E 119°28'27 9.7
2016-May-11 18:33N 25°17' E 119°39'1010.4
2016-May-11 17:34N 25°19' E 119°27'1111.2
2016-May-11 16:33N 25°25' E 119°17'0 0.0
2016-May-11 15:33N 25°25' E 119°17'0 0.0
2016-May-11 14:33N 25°25' E 119°17'0 0.0
2016-May-11 13:33N 25°25' E 119°17'0 0.0
2016-May-11 12:33N 25°25' E 119°17'0 0.1
2016-May-11 11:33N 25°25' E 119°17'0 0.1
2016-May-11 10:33N 25°25' E 119°17'0 0.0
2016-May-11 09:32N 25°25' E 119°17'0 0.0
2016-May-11 08:29N 25°25' E 119°17'0 0.0
2016-May-11 07:32N 25°25' E 119°17'0 0.0
2016-May-11 06:33N 25°25' E 119°17'0 0.0
2016-May-11 05:33N 25°25' E 119°17'0 0.0
2016-May-11 04:33N 25°25' E 119°17'0 0.0
2016-May-11 03:33N 25°25' E 119°17'6 5.6
2016-May-11 02:34N 25°22' E 119°22'1312.6
2016-May-11 01:33N 25°18' E 119°35'4 3.8
2016-May-11 00:33N 25°17' E 119°39'9 8.2
2016-May-10 23:28N 25°10' E 119°45'9 8.6
2016-May-10 22:28N 25°02' E 119°40'24 8.1
2016-May-10 19:33N 24°43' E 119°25'7 7.0
2016-May-10 18:32N 24°39' E 119°18'7 6.9
2016-May-10 17:33N 24°34' E 119°13'7 7.3
2016-May-10 16:33N 24°30' E 119°07'4210.6
2016-May-10 12:33N 24°03' E 118°30'1111.1
2016-May-10 11:33N 23°56' E 118°21'1411.5
2016-May-10 10:18N 23°46' E 118°10'911.3
2016-May-10 09:28N 23°40' E 118°01'5710.9
2016-May-10 04:16N 23°06' E 117°12'811.0
2016-May-10 03:32N 23°02' E 117°05'  
Track history (hours):
 
Tides and Currents Weather Stations Pressure Air Temp Water Temp Dewpoint Dewpoint Depression Visibility Wind Speed Wind Dir Waves Ship Positions

APL Egypt

Last reported at 2016-May-20 03:28 UTC. Time now 2019-Apr-25 01:51 UTC.
Position N 01°54' E 102°22'.
Warning: this ship's position is years out of date!

Length 294 m; beam 32.2 m; draft 13.6 m.

Type: Ship. MMSI: 636090618.

Date/timePositionNaut miles runAvg speedWind from/ knotsBaromVisibWave heightAir tempDewpointWater temp
2016-May-20 03:28N 01°54' E 102°22'1516.2
2016-May-20 02:33N 01°47' E 102°35'6215.3
2016-May-19 22:31N 01°13' E 103°27'1616.4
2016-May-19 21:33N 01°09' E 103°42'1413.9
2016-May-19 20:33N 01°14' E 103°55'  
2016-May-16 03:16N 22°01' E 114°21'1514.6
2016-May-16 02:14N 22°12' E 114°10'812.3
2016-May-16 01:34N 22°19' E 114°05'1211.6
2016-May-16 00:34N 22°23' E 113°53'5 5.3
2016-May-15 23:34N 22°29' E 113°52'0 0.0
2016-May-15 13:11N 22°28' E 113°52'3 4.3
2016-May-15 12:33N 22°26' E 113°53'10 7.5
2016-May-15 11:14N 22°21' E 114°03'19 9.6
2016-May-15 09:15N 22°06' E 114°15'23 1.2
2016-May-14 13:22N 22°05' E 113°51'1011.9
2016-May-14 12:33N 22°15' E 113°49'1211.8
2016-May-14 11:33N 22°26' E 113°45'1 0.1
2016-May-14 02:18N 22°27' E 113°45'1013.6
2016-May-14 01:33N 22°17' E 113°48'267 9.2
2016-May-12 20:30N 24°02' E 118°16'1312.4
2016-May-12 19:26N 24°15' E 118°15'1112.2
2016-May-12 18:33N 24°23' E 118°07'6 6.0
2016-May-12 17:33N 24°26' E 118°02'0 0.0
2016-May-12 16:31N 24°26' E 118°02'0 0.0
2016-May-12 15:31N 24°26' E 118°02'0 0.0
2016-May-12 14:31N 24°26' E 118°02'0 0.0
2016-May-12 13:31N 24°26' E 118°02'0 0.0
2016-May-12 12:33N 24°27' E 118°02'0 0.0
2016-May-12 11:31N 24°26' E 118°02'5 5.6
2016-May-12 10:33N 24°24' E 118°07'7 7.1
2016-May-12 09:33N 24°19' E 118°12'9 4.5
2016-May-12 07:27N 24°17' E 118°22'0 0.5
2016-May-12 06:33N 24°17' E 118°22'1 1.2
2016-May-12 05:33N 24°16' E 118°23'1 1.2
2016-May-12 04:31N 24°16' E 118°24'34 8.0
2016-May-12 00:19N 24°32' E 118°57'911.4
2016-May-11 23:33N 24°36' E 119°05'1211.6
2016-May-11 22:31N 24°43' E 119°16'1411.5
2016-May-11 21:17N 24°52' E 119°28'27 9.7
2016-May-11 18:33N 25°17' E 119°39'1010.4
2016-May-11 17:34N 25°19' E 119°27'1111.2
2016-May-11 16:33N 25°25' E 119°17'0 0.0
2016-May-11 15:33N 25°25' E 119°17'0 0.0
2016-May-11 14:33N 25°25' E 119°17'0 0.0
2016-May-11 13:33N 25°25' E 119°17'0 0.0
2016-May-11 12:33N 25°25' E 119°17'0 0.1
2016-May-11 11:33N 25°25' E 119°17'0 0.1
2016-May-11 10:33N 25°25' E 119°17'0 0.0
2016-May-11 09:32N 25°25' E 119°17'0 0.0
2016-May-11 08:29N 25°25' E 119°17'0 0.0
2016-May-11 07:32N 25°25' E 119°17'0 0.0
2016-May-11 06:33N 25°25' E 119°17'0 0.0
2016-May-11 05:33N 25°25' E 119°17'0 0.0
2016-May-11 04:33N 25°25' E 119°17'0 0.0
2016-May-11 03:33N 25°25' E 119°17'6 5.6
2016-May-11 02:34N 25°22' E 119°22'1312.6
2016-May-11 01:33N 25°18' E 119°35'4 3.8
2016-May-11 00:33N 25°17' E 119°39'9 8.2
2016-May-10 23:28N 25°10' E 119°45'9 8.6
2016-May-10 22:28N 25°02' E 119°40'24 8.1
2016-May-10 19:33N 24°43' E 119°25'7 7.0
2016-May-10 18:32N 24°39' E 119°18'7 6.9
2016-May-10 17:33N 24°34' E 119°13'7 7.3
2016-May-10 16:33N 24°30' E 119°07'4210.6
2016-May-10 12:33N 24°03' E 118°30'1111.1
2016-May-10 11:33N 23°56' E 118°21'1411.5
2016-May-10 10:18N 23°46' E 118°10'911.3
2016-May-10 09:28N 23°40' E 118°01'5710.9
2016-May-10 04:16N 23°06' E 117°12'811.0
2016-May-10 03:32N 23°02' E 117°05'  

Dump ship's entire track history